sensor_id;sensor_type;location;lat;lon;timestamp;pressure;altitude;pressure_sealevel;temperature;humidity
61478;BME280;47345;52.334;10.392;2023-09-08T00:00:14;101322.11;;;18.71;65.86
61478;BME280;47345;52.334;10.392;2023-09-08T00:02:42;101319.09;;;18.67;66.00
61478;BME280;47345;52.334;10.392;2023-09-08T00:05:10;101316.73;;;18.62;66.22
61478;BME280;47345;52.334;10.392;2023-09-08T00:07:38;101315.23;;;18.58;66.43
61478;BME280;47345;52.334;10.392;2023-09-08T00:10:08;101316.23;;;18.56;66.67
61478;BME280;47345;52.334;10.392;2023-09-08T00:12:35;101318.11;;;18.52;66.76
61478;BME280;47345;52.334;10.392;2023-09-08T00:15:06;101312.65;;;18.48;66.96
61478;BME280;47345;52.334;10.392;2023-09-08T00:17:34;101312.35;;;18.42;67.07
61478;BME280;47345;52.334;10.392;2023-09-08T00:20:07;101312.73;;;18.38;67.11
61478;BME280;47345;52.334;10.392;2023-09-08T00:22:37;101319.40;;;18.34;66.65
61478;BME280;47345;52.334;10.392;2023-09-08T00:25:07;101321.78;;;18.25;66.73
61478;BME280;47345;52.334;10.392;2023-09-08T00:27:35;101322.77;;;18.17;66.97
61478;BME280;47345;52.334;10.392;2023-09-08T00:30:04;101321.92;;;18.09;67.31
61478;BME280;47345;52.334;10.392;2023-09-08T00:32:33;101322.20;;;18.04;67.87
61478;BME280;47345;52.334;10.392;2023-09-08T00:35:02;101317.83;;;18.04;68.16
61478;BME280;47345;52.334;10.392;2023-09-08T00:37:30;101311.63;;;18.07;68.24
61478;BME280;47345;52.334;10.392;2023-09-08T00:39:58;101308.67;;;18.05;68.18
61478;BME280;47345;52.334;10.392;2023-09-08T00:42:27;101310.59;;;18.02;68.33
61478;BME280;47345;52.334;10.392;2023-09-08T00:44:55;101305.25;;;17.96;68.52
61478;BME280;47345;52.334;10.392;2023-09-08T00:47:23;101302.84;;;17.93;68.65
61478;BME280;47345;52.334;10.392;2023-09-08T00:49:51;101303.42;;;17.92;68.86
61478;BME280;47345;52.334;10.392;2023-09-08T00:52:20;101302.86;;;17.91;68.92
61478;BME280;47345;52.334;10.392;2023-09-08T00:54:48;101301.39;;;17.90;68.91
61478;BME280;47345;52.334;10.392;2023-09-08T00:57:16;101303.29;;;17.90;69.01
61478;BME280;47345;52.334;10.392;2023-09-08T00:59:46;101302.14;;;17.91;68.95
61478;BME280;47345;52.334;10.392;2023-09-08T01:02:14;101300.47;;;17.91;69.01
61478;BME280;47345;52.334;10.392;2023-09-08T01:04:42;101301.36;;;17.89;69.07
61478;BME280;47345;52.334;10.392;2023-09-08T01:07:12;101297.73;;;17.89;69.07
61478;BME280;47345;52.334;10.392;2023-09-08T01:09:42;101298.02;;;17.90;69.27
61478;BME280;47345;52.334;10.392;2023-09-08T01:12:10;101296.66;;;17.91;69.31
61478;BME280;47345;52.334;10.392;2023-09-08T01:14:38;101299.52;;;17.90;69.32
61478;BME280;47345;52.334;10.392;2023-09-08T01:17:06;101292.85;;;17.89;69.38
61478;BME280;47345;52.334;10.392;2023-09-08T01:19:35;101288.54;;;17.89;69.44
61478;BME280;47345;52.334;10.392;2023-09-08T01:22:18;101288.88;;;17.87;69.53
61478;BME280;47345;52.334;10.392;2023-09-08T01:25:13;101291.40;;;17.84;69.61
61478;BME280;47345;52.334;10.392;2023-09-08T01:27:47;101288.48;;;17.79;69.76
61478;BME280;47345;52.334;10.392;2023-09-08T01:30:16;101289.65;;;17.75;69.96
61478;BME280;47345;52.334;10.392;2023-09-08T01:32:46;101288.67;;;17.70;70.10
61478;BME280;47345;52.334;10.392;2023-09-08T01:35:15;101291.71;;;17.67;70.20
61478;BME280;47345;52.334;10.392;2023-09-08T01:37:45;101296.38;;;17.66;70.25
61478;BME280;47345;52.334;10.392;2023-09-08T01:40:14;101291.71;;;17.65;70.40
61478;BME280;47345;52.334;10.392;2023-09-08T01:42:42;101288.05;;;17.62;70.44
61478;BME280;47345;52.334;10.392;2023-09-08T01:45:11;101292.02;;;17.60;70.38
61478;BME280;47345;52.334;10.392;2023-09-08T01:47:39;101291.42;;;17.57;70.54
61478;BME280;47345;52.334;10.392;2023-09-08T01:50:09;101285.98;;;17.54;70.65
61478;BME280;47345;52.334;10.392;2023-09-08T01:52:37;101281.77;;;17.52;70.64
61478;BME280;47345;52.334;10.392;2023-09-08T01:55:07;101279.21;;;17.48;70.73
61478;BME280;47345;52.334;10.392;2023-09-08T01:57:35;101277.34;;;17.44;70.65
61478;BME280;47345;52.334;10.392;2023-09-08T02:00:05;101279.77;;;17.38;70.61
61478;BME280;47345;52.334;10.392;2023-09-08T02:02:33;101276.58;;;17.34;70.77
61478;BME280;47345;52.334;10.392;2023-09-08T02:05:01;101274.88;;;17.29;70.94
61478;BME280;47345;52.334;10.392;2023-09-08T02:07:29;101273.84;;;17.22;70.96
61478;BME280;47345;52.334;10.392;2023-09-08T02:09:59;101270.69;;;17.15;71.19
61478;BME280;47345;52.334;10.392;2023-09-08T02:12:27;101271.92;;;17.09;71.24
61478;BME280;47345;52.334;10.392;2023-09-08T02:14:56;101271.19;;;17.05;71.47
61478;BME280;47345;52.334;10.392;2023-09-08T02:17:24;101267.15;;;17.00;71.82
61478;BME280;47345;52.334;10.392;2023-09-08T02:19:51;101266.95;;;16.96;72.00
61478;BME280;47345;52.334;10.392;2023-09-08T02:22:19;101263.59;;;16.93;72.20
61478;BME280;47345;52.334;10.392;2023-09-08T02:24:47;101264.27;;;16.90;72.37
61478;BME280;47345;52.334;10.392;2023-09-08T02:27:15;101261.86;;;16.84;72.37
61478;BME280;47345;52.334;10.392;2023-09-08T02:29:44;101259.45;;;16.75;71.97
61478;BME280;47345;52.334;10.392;2023-09-08T02:32:12;101254.07;;;16.67;71.88
61478;BME280;47345;52.334;10.392;2023-09-08T02:34:41;101253.10;;;16.61;72.74
61478;BME280;47345;52.334;10.392;2023-09-08T02:37:09;101255.89;;;16.62;73.11
61478;BME280;47345;52.334;10.392;2023-09-08T02:39:36;101252.46;;;16.62;73.23
61478;BME280;47345;52.334;10.392;2023-09-08T02:42:05;101252.42;;;16.61;73.42
61478;BME280;47345;52.334;10.392;2023-09-08T02:44:32;101255.20;;;16.63;73.53
61478;BME280;47345;52.334;10.392;2023-09-08T02:46:59;101252.45;;;16.65;73.52
61478;BME280;47345;52.334;10.392;2023-09-08T02:49:27;101249.84;;;16.63;73.72
61478;BME280;47345;52.334;10.392;2023-09-08T02:51:55;101254.94;;;16.63;73.80
61478;BME280;47345;52.334;10.392;2023-09-08T02:54:22;101249.24;;;16.63;73.97
61478;BME280;47345;52.334;10.392;2023-09-08T02:56:50;101248.75;;;16.62;74.12
61478;BME280;47345;52.334;10.392;2023-09-08T02:59:17;101247.70;;;16.61;74.17
61478;BME280;47345;52.334;10.392;2023-09-08T03:01:45;101245.52;;;16.60;74.32
61478;BME280;47345;52.334;10.392;2023-09-08T03:04:13;101249.20;;;16.60;74.44
61478;BME280;47345;52.334;10.392;2023-09-08T03:06:41;101247.42;;;16.60;74.44
61478;BME280;47345;52.334;10.392;2023-09-08T03:09:08;101248.98;;;16.58;74.48
61478;BME280;47345;52.334;10.392;2023-09-08T03:11:36;101248.99;;;16.54;74.73
61478;BME280;47345;52.334;10.392;2023-09-08T03:14:05;101250.33;;;16.52;74.71
61478;BME280;47345;52.334;10.392;2023-09-08T03:16:33;101248.33;;;16.52;74.76
61478;BME280;47345;52.334;10.392;2023-09-08T03:19:01;101249.77;;;16.50;74.85
61478;BME280;47345;52.334;10.392;2023-09-08T03:21:28;101250.45;;;16.47;74.78
61478;BME280;47345;52.334;10.392;2023-09-08T03:23:56;101251.02;;;16.41;74.49
61478;BME280;47345;52.334;10.392;2023-09-08T03:26:24;101253.95;;;16.35;74.60
61478;BME280;47345;52.334;10.392;2023-09-08T03:28:51;101252.55;;;16.28;74.85
61478;BME280;47345;52.334;10.392;2023-09-08T03:31:19;101252.42;;;16.24;75.43
61478;BME280;47345;52.334;10.392;2023-09-08T03:33:47;101247.90;;;16.26;75.65
61478;BME280;47345;52.334;10.392;2023-09-08T03:36:15;101242.33;;;16.28;75.44
61478;BME280;47345;52.334;10.392;2023-09-08T03:38:44;101246.29;;;16.27;75.52
61478;BME280;47345;52.334;10.392;2023-09-08T03:41:12;101244.54;;;16.28;75.67
61478;BME280;47345;52.334;10.392;2023-09-08T03:43:40;101243.37;;;16.28;75.64
61478;BME280;47345;52.334;10.392;2023-09-08T03:46:07;101243.56;;;16.27;75.69
61478;BME280;47345;52.334;10.392;2023-09-08T03:48:35;101244.73;;;16.25;75.74
61478;BME280;47345;52.334;10.392;2023-09-08T03:51:02;101246.27;;;16.22;75.83
61478;BME280;47345;52.334;10.392;2023-09-08T03:53:31;101248.17;;;16.18;75.93
61478;BME280;47345;52.334;10.392;2023-09-08T03:55:59;101248.58;;;16.17;76.10
61478;BME280;47345;52.334;10.392;2023-09-08T03:58:28;101245.15;;;16.16;76.23
61478;BME280;47345;52.334;10.392;2023-09-08T04:00:57;101245.77;;;16.13;76.21
61478;BME280;47345;52.334;10.392;2023-09-08T04:03:25;101244.70;;;16.11;76.19
61478;BME280;47345;52.334;10.392;2023-09-08T04:05:53;101240.89;;;16.10;76.29
61478;BME280;47345;52.334;10.392;2023-09-08T04:08:22;101240.45;;;16.08;76.34
61478;BME280;47345;52.334;10.392;2023-09-08T04:10:50;101241.61;;;16.06;76.32
61478;BME280;47345;52.334;10.392;2023-09-08T04:13:18;101245.15;;;16.03;75.71
61478;BME280;47345;52.334;10.392;2023-09-08T04:15:46;101251.75;;;15.94;75.67
61478;BME280;47345;52.334;10.392;2023-09-08T04:18:14;101249.41;;;15.86;75.77
61478;BME280;47345;52.334;10.392;2023-09-08T04:20:42;101248.48;;;15.80;76.15
61478;BME280;47345;52.334;10.392;2023-09-08T04:23:10;101244.42;;;15.75;76.21
61478;BME280;47345;52.334;10.392;2023-09-08T04:25:37;101242.81;;;15.71;76.21
61478;BME280;47345;52.334;10.392;2023-09-08T04:28:06;101243.70;;;15.65;76.34
61478;BME280;47345;52.334;10.392;2023-09-08T04:30:34;101244.35;;;15.62;76.35
61478;BME280;47345;52.334;10.392;2023-09-08T04:33:03;101241.92;;;15.58;76.36
61478;BME280;47345;52.334;10.392;2023-09-08T04:35:31;101242.84;;;15.57;76.26
61478;BME280;47345;52.334;10.392;2023-09-08T04:37:59;101246.61;;;15.54;75.98
61478;BME280;47345;52.334;10.392;2023-09-08T04:40:31;101242.08;;;15.52;75.95
61478;BME280;47345;52.334;10.392;2023-09-08T04:42:59;101243.66;;;15.52;76.29
61478;BME280;47345;52.334;10.392;2023-09-08T04:45:27;101248.74;;;15.52;76.36
61478;BME280;47345;52.334;10.392;2023-09-08T04:47:55;101244.14;;;15.51;76.24
61478;BME280;47345;52.334;10.392;2023-09-08T04:50:23;101243.10;;;15.48;76.38
61478;BME280;47345;52.334;10.392;2023-09-08T04:52:51;101243.36;;;15.47;76.48
61478;BME280;47345;52.334;10.392;2023-09-08T04:55:18;101239.66;;;15.49;76.70
61478;BME280;47345;52.334;10.392;2023-09-08T04:57:46;101238.34;;;15.49;76.50
61478;BME280;47345;52.334;10.392;2023-09-08T05:00:16;101240.06;;;15.47;76.33
61478;BME280;47345;52.334;10.392;2023-09-08T05:02:44;101238.70;;;15.48;76.08
61478;BME280;47345;52.334;10.392;2023-09-08T05:05:13;101239.64;;;15.46;76.00
61478;BME280;47345;52.334;10.392;2023-09-08T05:07:41;101244.42;;;15.47;76.26
61478;BME280;47345;52.334;10.392;2023-09-08T05:10:10;101245.62;;;15.51;76.56
61478;BME280;47345;52.334;10.392;2023-09-08T05:12:39;101246.09;;;15.55;76.82
61478;BME280;47345;52.334;10.392;2023-09-08T05:15:08;101248.02;;;15.61;76.95
61478;BME280;47345;52.334;10.392;2023-09-08T05:17:42;101251.17;;;15.67;77.00
61478;BME280;47345;52.334;10.392;2023-09-08T05:20:10;101245.65;;;15.72;77.01
61478;BME280;47345;52.334;10.392;2023-09-08T05:22:38;101247.93;;;15.77;76.78
61478;BME280;47345;52.334;10.392;2023-09-08T05:25:06;101245.71;;;15.81;76.55
61478;BME280;47345;52.334;10.392;2023-09-08T05:27:34;101239.95;;;15.77;75.99
61478;BME280;47345;52.334;10.392;2023-09-08T05:30:03;101243.95;;;15.76;75.69
61478;BME280;47345;52.334;10.392;2023-09-08T05:32:31;101248.13;;;15.75;75.82
61478;BME280;47345;52.334;10.392;2023-09-08T05:34:59;101247.55;;;15.76;75.99
61478;BME280;47345;52.334;10.392;2023-09-08T05:37:27;101247.22;;;15.80;76.28
61478;BME280;47345;52.334;10.392;2023-09-08T05:39:55;101246.94;;;15.83;76.38
61478;BME280;47345;52.334;10.392;2023-09-08T05:42:24;101246.83;;;15.86;76.54
61478;BME280;47345;52.334;10.392;2023-09-08T05:44:51;101245.26;;;15.91;76.67
61478;BME280;47345;52.334;10.392;2023-09-08T05:47:21;101249.27;;;15.96;76.86
61478;BME280;47345;52.334;10.392;2023-09-08T05:49:49;101248.77;;;16.02;77.21
61478;BME280;47345;52.334;10.392;2023-09-08T05:52:17;101246.55;;;16.09;77.39
61478;BME280;47345;52.334;10.392;2023-09-08T05:54:45;101247.99;;;16.16;77.89
61478;BME280;47345;52.334;10.392;2023-09-08T05:57:14;101250.20;;;16.26;78.22
61478;BME280;47345;52.334;10.392;2023-09-08T05:59:41;101251.16;;;16.36;78.54
61478;BME280;47345;52.334;10.392;2023-09-08T06:02:09;101252.78;;;16.47;78.87
61478;BME280;47345;52.334;10.392;2023-09-08T06:04:37;101255.96;;;16.59;78.96
61478;BME280;47345;52.334;10.392;2023-09-08T06:07:04;101257.35;;;16.70;78.72
61478;BME280;47345;52.334;10.392;2023-09-08T06:09:32;101256.95;;;16.77;78.58
61478;BME280;47345;52.334;10.392;2023-09-08T06:12:01;101258.09;;;16.88;78.61
61478;BME280;47345;52.334;10.392;2023-09-08T06:14:29;101250.94;;;16.97;78.38
61478;BME280;47345;52.334;10.392;2023-09-08T06:16:56;101247.45;;;17.06;77.97
61478;BME280;47345;52.334;10.392;2023-09-08T06:19:24;101247.10;;;17.11;77.69
61478;BME280;47345;52.334;10.392;2023-09-08T06:21:53;101248.55;;;17.21;77.74
61478;BME280;47345;52.334;10.392;2023-09-08T06:24:21;101250.05;;;17.33;77.41
61478;BME280;47345;52.334;10.392;2023-09-08T06:26:49;101252.20;;;17.45;77.72
61478;BME280;47345;52.334;10.392;2023-09-08T06:29:17;101248.69;;;17.58;77.34
61478;BME280;47345;52.334;10.392;2023-09-08T06:31:46;101244.19;;;17.70;77.10
61478;BME280;47345;52.334;10.392;2023-09-08T06:34:14;101244.70;;;17.84;77.02
61478;BME280;47345;52.334;10.392;2023-09-08T06:36:43;101243.72;;;17.97;76.84
61478;BME280;47345;52.334;10.392;2023-09-08T06:39:11;101243.16;;;18.10;76.65
61478;BME280;47345;52.334;10.392;2023-09-08T06:41:39;101244.53;;;18.24;76.42
61478;BME280;47345;52.334;10.392;2023-09-08T06:44:07;101247.56;;;18.34;75.88
61478;BME280;47345;52.334;10.392;2023-09-08T06:46:35;101249.33;;;18.42;75.57
61478;BME280;47345;52.334;10.392;2023-09-08T06:49:03;101247.95;;;18.54;75.41
61478;BME280;47345;52.334;10.392;2023-09-08T06:51:32;101244.98;;;18.68;75.24
61478;BME280;47345;52.334;10.392;2023-09-08T06:54:00;101243.00;;;18.82;74.85
61478;BME280;47345;52.334;10.392;2023-09-08T06:56:28;101243.91;;;18.93;74.41
61478;BME280;47345;52.334;10.392;2023-09-08T06:58:57;101245.19;;;19.05;74.14
61478;BME280;47345;52.334;10.392;2023-09-08T07:01:25;101242.66;;;19.18;73.88
61478;BME280;47345;52.334;10.392;2023-09-08T07:03:54;101246.61;;;19.29;73.30
61478;BME280;47345;52.334;10.392;2023-09-08T07:06:22;101247.80;;;19.41;73.15
61478;BME280;47345;52.334;10.392;2023-09-08T07:08:51;101250.38;;;19.55;72.84
61478;BME280;47345;52.334;10.392;2023-09-08T07:11:19;101247.71;;;19.67;72.29
61478;BME280;47345;52.334;10.392;2023-09-08T07:13:47;101244.19;;;19.78;71.81
61478;BME280;47345;52.334;10.392;2023-09-08T07:16:15;101250.17;;;19.93;71.48
61478;BME280;47345;52.334;10.392;2023-09-08T07:18:44;101249.80;;;20.06;71.04
61478;BME280;47345;52.334;10.392;2023-09-08T07:21:11;101251.95;;;20.20;70.48
61478;BME280;47345;52.334;10.392;2023-09-08T07:23:40;101251.91;;;20.34;70.34
61478;BME280;47345;52.334;10.392;2023-09-08T07:26:07;101254.42;;;20.52;70.25
61478;BME280;47345;52.334;10.392;2023-09-08T07:28:36;101258.30;;;20.68;70.09
61478;BME280;47345;52.334;10.392;2023-09-08T07:31:05;101258.73;;;20.81;69.49
61478;BME280;47345;52.334;10.392;2023-09-08T07:33:36;101255.18;;;20.94;69.44
61478;BME280;47345;52.334;10.392;2023-09-08T07:36:06;101258.22;;;21.11;68.94
61478;BME280;47345;52.334;10.392;2023-09-08T07:38:34;101261.05;;;21.26;68.78
61478;BME280;47345;52.334;10.392;2023-09-08T07:41:03;101262.21;;;21.41;68.17
61478;BME280;47345;52.334;10.392;2023-09-08T07:43:31;101263.23;;;21.55;67.63
61478;BME280;47345;52.334;10.392;2023-09-08T07:46:00;101255.79;;;21.67;66.84
61478;BME280;47345;52.334;10.392;2023-09-08T07:48:28;101255.00;;;21.80;66.53
61478;BME280;47345;52.334;10.392;2023-09-08T07:50:56;101252.23;;;21.93;66.28
61478;BME280;47345;52.334;10.392;2023-09-08T07:53:25;101246.98;;;22.05;66.15
61478;BME280;47345;52.334;10.392;2023-09-08T07:55:53;101249.42;;;22.18;65.86
61478;BME280;47345;52.334;10.392;2023-09-08T07:58:22;101247.39;;;22.30;65.05
61478;BME280;47345;52.334;10.392;2023-09-08T08:00:50;101241.90;;;22.41;65.52
61478;BME280;47345;52.334;10.392;2023-09-08T08:03:18;101241.63;;;22.56;64.82
61478;BME280;47345;52.334;10.392;2023-09-08T08:05:47;101241.04;;;22.67;64.19
61478;BME280;47345;52.334;10.392;2023-09-08T08:08:15;101240.09;;;22.78;63.65
61478;BME280;47345;52.334;10.392;2023-09-08T08:10:43;101238.69;;;22.90;63.23
61478;BME280;47345;52.334;10.392;2023-09-08T08:13:11;101241.04;;;23.03;63.25
61478;BME280;47345;52.334;10.392;2023-09-08T08:15:40;101246.06;;;23.19;63.56
61478;BME280;47345;52.334;10.392;2023-09-08T08:18:10;101240.08;;;23.34;63.35
61478;BME280;47345;52.334;10.392;2023-09-08T08:20:38;101239.99;;;23.48;62.63
61478;BME280;47345;52.334;10.392;2023-09-08T08:23:07;101238.23;;;23.62;61.94
61478;BME280;47345;52.334;10.392;2023-09-08T08:25:37;101234.02;;;23.77;61.51
61478;BME280;47345;52.334;10.392;2023-09-08T08:28:06;101235.61;;;23.91;61.11
61478;BME280;47345;52.334;10.392;2023-09-08T08:30:34;101234.97;;;24.04;60.46
61478;BME280;47345;52.334;10.392;2023-09-08T08:33:03;101229.70;;;24.19;60.11
61478;BME280;47345;52.334;10.392;2023-09-08T08:35:31;101229.23;;;24.32;59.37
61478;BME280;47345;52.334;10.392;2023-09-08T08:37:59;101225.34;;;24.46;59.32
61478;BME280;47345;52.334;10.392;2023-09-08T08:40:28;101225.30;;;24.59;59.22
61478;BME280;47345;52.334;10.392;2023-09-08T08:42:57;101221.38;;;24.70;58.77
61478;BME280;47345;52.334;10.392;2023-09-08T08:45:29;101221.36;;;24.82;58.71
61478;BME280;47345;52.334;10.392;2023-09-08T08:47:58;101216.91;;;24.91;58.06
61478;BME280;47345;52.334;10.392;2023-09-08T08:50:27;101215.73;;;25.04;57.85
61478;BME280;47345;52.334;10.392;2023-09-08T08:52:56;101218.54;;;25.16;57.38
61478;BME280;47345;52.334;10.392;2023-09-08T08:55:25;101212.98;;;25.28;58.19
61478;BME280;47345;52.334;10.392;2023-09-08T08:57:55;101218.10;;;25.43;57.97
61478;BME280;47345;52.334;10.392;2023-09-08T09:00:23;101214.05;;;25.55;58.47
61478;BME280;47345;52.334;10.392;2023-09-08T09:02:51;101213.57;;;25.64;57.56
61478;BME280;47345;52.334;10.392;2023-09-08T09:05:39;101209.73;;;25.71;57.73
61478;BME280;47345;52.334;10.392;2023-09-08T09:08:11;101211.29;;;25.81;58.11
61478;BME280;47345;52.334;10.392;2023-09-08T09:10:40;101208.30;;;25.91;57.23
61478;BME280;47345;52.334;10.392;2023-09-08T09:13:08;101208.09;;;26.02;56.80
61478;BME280;47345;52.334;10.392;2023-09-08T09:15:37;101200.27;;;26.15;56.39
61478;BME280;47345;52.334;10.392;2023-09-08T09:18:07;101201.14;;;26.28;55.39
61478;BME280;47345;52.334;10.392;2023-09-08T09:20:36;101203.56;;;26.38;55.33
61478;BME280;47345;52.334;10.392;2023-09-08T09:23:05;101204.45;;;26.51;55.25
61478;BME280;47345;52.334;10.392;2023-09-08T09:25:33;101204.07;;;26.63;54.53
61478;BME280;47345;52.334;10.392;2023-09-08T09:28:02;101206.19;;;26.75;53.92
61478;BME280;47345;52.334;10.392;2023-09-08T09:30:49;101203.22;;;26.86;52.61
61478;BME280;47345;52.334;10.392;2023-09-08T09:33:18;101202.63;;;27.01;51.74
61478;BME280;47345;52.334;10.392;2023-09-08T09:35:48;101202.20;;;27.15;50.57
61478;BME280;47345;52.334;10.392;2023-09-08T09:38:17;101198.45;;;27.27;49.24
61478;BME280;47345;52.334;10.392;2023-09-08T09:40:46;101200.42;;;27.38;49.71
61478;BME280;47345;52.334;10.392;2023-09-08T09:43:15;101195.79;;;27.50;48.54
61478;BME280;47345;52.334;10.392;2023-09-08T09:45:44;101190.81;;;27.60;47.88
61478;BME280;47345;52.334;10.392;2023-09-08T09:48:12;101186.99;;;27.70;47.39
61478;BME280;47345;52.334;10.392;2023-09-08T09:50:41;101188.66;;;27.81;47.08
61478;BME280;47345;52.334;10.392;2023-09-08T09:53:11;101187.67;;;27.91;45.91
61478;BME280;47345;52.334;10.392;2023-09-08T09:55:41;101186.20;;;27.99;45.23
61478;BME280;47345;52.334;10.392;2023-09-08T09:58:10;101186.96;;;28.08;45.33
61478;BME280;47345;52.334;10.392;2023-09-08T10:00:38;101188.50;;;28.18;45.13
61478;BME280;47345;52.334;10.392;2023-09-08T10:03:08;101190.98;;;28.27;45.11
61478;BME280;47345;52.334;10.392;2023-09-08T10:05:38;101185.23;;;28.35;44.12
61478;BME280;47345;52.334;10.392;2023-09-08T10:08:07;101186.39;;;28.41;43.37
61478;BME280;47345;52.334;10.392;2023-09-08T10:10:35;101187.27;;;28.47;43.23
61478;BME280;47345;52.334;10.392;2023-09-08T10:13:06;101185.05;;;28.52;43.62
61478;BME280;47345;52.334;10.392;2023-09-08T10:15:34;101187.52;;;28.62;43.92
61478;BME280;47345;52.334;10.392;2023-09-08T10:18:05;101183.68;;;28.71;43.65
61478;BME280;47345;52.334;10.392;2023-09-08T10:20:34;101183.88;;;28.82;43.94
61478;BME280;47345;52.334;10.392;2023-09-08T10:23:23;101183.86;;;28.92;41.92
61478;BME280;47345;52.334;10.392;2023-09-08T10:25:59;101180.48;;;28.98;41.17
61478;BME280;47345;52.334;10.392;2023-09-08T10:28:31;101178.61;;;29.03;41.48
61478;BME280;47345;52.334;10.392;2023-09-08T10:31:01;101177.45;;;29.08;40.96
61478;BME280;47345;52.334;10.392;2023-09-08T10:33:30;101172.91;;;29.12;41.12
61478;BME280;47345;52.334;10.392;2023-09-08T10:36:00;101165.70;;;29.20;40.77
61478;BME280;47345;52.334;10.392;2023-09-08T10:38:32;101167.77;;;29.24;39.92
61478;BME280;47345;52.334;10.392;2023-09-08T10:41:28;101162.36;;;29.28;39.99
61478;BME280;47345;52.334;10.392;2023-09-08T10:44:02;101159.91;;;29.33;39.55
61478;BME280;47345;52.334;10.392;2023-09-08T10:46:32;101161.26;;;29.38;39.82
61478;BME280;47345;52.334;10.392;2023-09-08T10:49:05;101160.86;;;29.45;39.96
61478;BME280;47345;52.334;10.392;2023-09-08T10:51:35;101164.42;;;29.50;39.74
61478;BME280;47345;52.334;10.392;2023-09-08T10:54:03;101162.02;;;29.52;39.46
61478;BME280;47345;52.334;10.392;2023-09-08T10:56:48;101164.59;;;29.50;39.38
61478;BME280;47345;52.334;10.392;2023-09-08T10:59:23;101168.52;;;29.49;39.32
61478;BME280;47345;52.334;10.392;2023-09-08T11:01:55;101167.38;;;29.51;39.28
61478;BME280;47345;52.334;10.392;2023-09-08T11:04:24;101163.80;;;29.52;38.83
61478;BME280;47345;52.334;10.392;2023-09-08T11:06:53;101164.84;;;29.55;39.32
61478;BME280;47345;52.334;10.392;2023-09-08T11:09:23;101160.18;;;29.62;39.73
61478;BME280;47345;52.334;10.392;2023-09-08T11:11:52;101163.80;;;29.71;40.18
61478;BME280;47345;52.334;10.392;2023-09-08T11:14:19;101159.48;;;29.80;40.40
61478;BME280;47345;52.334;10.392;2023-09-08T11:16:47;101158.70;;;29.87;39.22
61478;BME280;47345;52.334;10.392;2023-09-08T11:19:16;101164.01;;;29.94;39.83
61478;BME280;47345;52.334;10.392;2023-09-08T11:21:45;101160.75;;;30.04;39.87
61478;BME280;47345;52.334;10.392;2023-09-08T11:24:13;101155.45;;;30.11;39.66
61478;BME280;47345;52.334;10.392;2023-09-08T11:26:42;101154.23;;;30.20;39.80
61478;BME280;47345;52.334;10.392;2023-09-08T11:29:14;101154.20;;;30.25;39.37
61478;BME280;47345;52.334;10.392;2023-09-08T11:31:43;101149.20;;;30.30;39.49
61478;BME280;47345;52.334;10.392;2023-09-08T11:34:12;101147.86;;;30.36;38.78
61478;BME280;47345;52.334;10.392;2023-09-08T11:36:41;101145.16;;;30.39;38.00
61478;BME280;47345;52.334;10.392;2023-09-08T11:39:10;101142.98;;;30.41;38.20
61478;BME280;47345;52.334;10.392;2023-09-08T11:41:38;101140.55;;;30.41;38.02
61478;BME280;47345;52.334;10.392;2023-09-08T11:44:07;101146.49;;;30.44;38.52
61478;BME280;47345;52.334;10.392;2023-09-08T11:46:35;101144.70;;;30.48;38.54
61478;BME280;47345;52.334;10.392;2023-09-08T11:49:05;101146.88;;;30.52;38.01
61478;BME280;47345;52.334;10.392;2023-09-08T11:51:33;101144.84;;;30.57;37.57
61478;BME280;47345;52.334;10.392;2023-09-08T11:54:01;101140.55;;;30.63;37.98
61478;BME280;47345;52.334;10.392;2023-09-08T11:56:30;101140.40;;;30.67;37.58
61478;BME280;47345;52.334;10.392;2023-09-08T11:59:00;101140.51;;;30.71;37.65
61478;BME280;47345;52.334;10.392;2023-09-08T12:01:29;101137.05;;;30.80;38.13
61478;BME280;47345;52.334;10.392;2023-09-08T12:03:58;101133.48;;;30.85;37.29
61478;BME280;47345;52.334;10.392;2023-09-08T12:06:27;101131.42;;;30.86;37.00
61478;BME280;47345;52.334;10.392;2023-09-08T12:08:56;101127.23;;;30.87;36.98
61478;BME280;47345;52.334;10.392;2023-09-08T12:11:32;101125.17;;;30.90;36.25
61478;BME280;47345;52.334;10.392;2023-09-08T12:14:06;101127.71;;;30.93;36.60
61478;BME280;47345;52.334;10.392;2023-09-08T12:16:34;101122.27;;;30.96;36.41
61478;BME280;47345;52.334;10.392;2023-09-08T12:19:02;101121.98;;;30.97;36.58
61478;BME280;47345;52.334;10.392;2023-09-08T12:21:30;101114.80;;;30.99;37.09
61478;BME280;47345;52.334;10.392;2023-09-08T12:23:59;101110.57;;;31.03;36.67
61478;BME280;47345;52.334;10.392;2023-09-08T12:26:28;101114.16;;;31.11;35.99
61478;BME280;47345;52.334;10.392;2023-09-08T12:28:57;101114.63;;;31.17;36.37
61478;BME280;47345;52.334;10.392;2023-09-08T12:31:25;101114.70;;;31.23;35.83
61478;BME280;47345;52.334;10.392;2023-09-08T12:33:54;101113.17;;;31.29;35.50
61478;BME280;47345;52.334;10.392;2023-09-08T12:36:24;101111.05;;;31.32;35.02
61478;BME280;47345;52.334;10.392;2023-09-08T12:38:52;101109.56;;;31.38;35.10
61478;BME280;47345;52.334;10.392;2023-09-08T12:41:21;101108.29;;;31.44;35.50
61478;BME280;47345;52.334;10.392;2023-09-08T12:43:49;101103.95;;;31.48;35.26
61478;BME280;47345;52.334;10.392;2023-09-08T12:46:18;101107.18;;;31.50;34.34
61478;BME280;47345;52.334;10.392;2023-09-08T12:48:47;101103.09;;;31.52;34.42